Terminal Aerodrome Forecast
Issued by NWS Pittsburgh, PA

Current Version | Previous Version | Graphics & Text | Print | Product List | Glossary On
Versions: 1 2 3 4 5 6 7 8 9 10 11 12 13 14 15 16 17 18 19 20 21 22 23 24 25 26 27 28 29 30 31 32
000
FTUS41 KPBZ 270407 AAC
TAFPIT
TAF AMD
KPIT 270407Z 2704/2806 14008KT 6SM -SHRA BR BKN005
      TEMPO 2704/2706 3SM SHRA BKN015
     FM270800 22006KT P6SM BKN025
     FM271500 24007KT P6SM BKN045
     FM280200 18003KT P6SM VCSH OVC110=

USA.gov is the U.S. government's official web portal to all federal, state and local government web resources and services.